Aeroporto :
LOGIN :

Iscrizione | Disclaimer

   EN    FR    IT 

 










Sommario :    VFR   VFR Marginale   IFR   IFR Intensivo   IFR Molto Intensivo
Visibilità : 
Base nubi : 
>= 8 km
>= 3000ft
5 / 8 km
1000 / 3000 ft
1500m / 5 km
500 / 1000 ft
800 / 1500m
200 / 500 ft
< 800m
< 200 ft
Simboli :   Temporali  Nebbia  Neve Forte  Precipitazioni Forti  Vento > 20 kt
SIGMETs :   Varie  Temporali  Ghiacco  Turbolenza  Onda orograficha  Ceneri Vulcaniche






- Altitudine del aeroporto : 39 ft
- Codice IATA : TRS


LIPQ - Friuli Venezia Giulia Apt. Trieste

ULTIMO METAR :
  • 170450Z AUTO VRB01KT 9999 NCD 18/15 Q1015

METARs OBSOLETI :
  • 170420Z AUTO 05002KT 9999 NCD 16/15 Q1014
  • 170350Z AUTO 05003KT 9999 NCD 15/14 Q1014
  • 170320Z AUTO 06002KT 9999 NCD 15/14 Q1014
  • 170250Z AUTO 05002KT 9999 NCD 15/15 Q1014
  • 170220Z AUTO 08003KT 1200 R09/P2000N BR NCD 16/14 Q1014
  • 170150Z AUTO 09003KT 050V110 1100 R09/P2000N BR NCD 15/15 Q1014
  • 170120Z AUTO 11002KT 9999 NCD 16/15 Q1014
  • 170050Z AUTO 35002KT 9999 NCD 16/16 Q1014
  • 170020Z AUTO VRB01KT 9999 NCD 17/16 Q1014
  • 162350Z AUTO VRB01KT 9999 NCD 16/16 Q1014

TAF TAF LIPQ
Valido dal 17 a 00 ore il 18 a 00 ore UTC


162300Z 1700/1724 VRB05KT 9999 SCT050



MetMap, La meteo Aeronautica in un colpo d'occhio ! - Copyright ORBIFLY Dicembre 2007 - Disclaimer

ORBIFLY MET'MAP TEAM :

Programmazione e sviluppo : Alexandra Zaïnal
Concezione : Baudouin d'Aumeries
Supporto tecnico e logistico : Manuel Goepfert
Aiuto : Marc-Olivier Méhu
Aiuto per la traduzione : Arnaldo La Scala




FONTI E CREDITI :

   NOAA